createdAt,value
2022-08-28T00:02:59.437Z,0
2022-08-28T00:08:03.915Z,0
2022-08-28T00:13:07.482Z,0
2022-08-28T00:18:12.254Z,0
2022-08-28T00:23:16.480Z,0
2022-08-28T00:28:23.614Z,0
2022-08-28T00:33:24.595Z,0
2022-08-28T00:38:29.128Z,0
2022-08-28T00:43:33.681Z,0
2022-08-28T00:48:37.186Z,0
2022-08-28T00:53:41.792Z,0
2022-08-28T00:58:46.271Z,0
2022-08-28T01:03:49.820Z,0
2022-08-28T01:08:54.360Z,0
2022-08-28T01:13:58.926Z,0
2022-08-28T01:19:02.473Z,0
2022-08-28T01:24:06.985Z,0
2022-08-28T01:29:11.522Z,0
2022-08-28T01:34:16.057Z,0
2022-08-28T01:39:19.608Z,0
2022-08-28T01:44:23.188Z,0
2022-08-28T01:49:27.698Z,0
2022-08-28T01:54:32.195Z,0
2022-08-28T01:59:35.791Z,0
2022-08-28T02:04:40.413Z,0
2022-08-28T02:09:44.841Z,0
2022-08-28T02:14:49.365Z,0
2022-08-28T02:19:52.953Z,0
2022-08-28T02:24:57.490Z,0
2022-08-28T02:30:02.024Z,0
2022-08-28T02:35:05.514Z,0
2022-08-28T02:40:10.135Z,0
2022-08-28T02:45:14.633Z,0
2022-08-28T02:50:18.132Z,0
2022-08-28T02:55:22.701Z,0
2022-08-28T03:00:27.212Z,0
2022-08-28T03:05:30.781Z,0
2022-08-28T03:10:35.351Z,0
2022-08-28T03:15:39.843Z,0
2022-08-28T03:20:44.409Z,0
2022-08-28T03:25:47.938Z,0
2022-08-28T03:30:52.563Z,0
2022-08-28T03:35:57.011Z,0
2022-08-28T03:41:00.540Z,0
2022-08-28T03:46:05.114Z,0
2022-08-28T03:51:09.632Z,0
2022-08-28T03:56:13.178Z,0
2022-08-28T04:01:17.776Z,0
2022-08-28T04:06:22.266Z,0
2022-08-28T04:11:25.801Z,4
2022-08-28T04:16:30.376Z,4
2022-08-28T04:21:34.859Z,12
2022-08-28T04:26:39.382Z,28
2022-08-28T04:31:43.077Z,60
2022-08-28T04:36:47.462Z,112
2022-08-28T04:41:51.994Z,180
2022-08-28T04:46:56.279Z,252
2022-08-28T04:52:00.058Z,352
2022-08-28T04:57:05.283Z,484
2022-08-28T05:02:08.239Z,636
2022-08-28T05:07:12.723Z,784
2022-08-28T05:12:17.250Z,912
2022-08-28T05:17:20.769Z,1108
2022-08-28T05:22:25.305Z,1356
2022-08-28T05:27:29.851Z,1700
2022-08-28T05:32:34.413Z,2036
2022-08-28T05:37:37.953Z,2340
2022-08-28T05:42:42.434Z,2652
2022-08-28T05:47:46.984Z,3016
2022-08-28T05:52:50.562Z,3424
2022-08-28T05:57:54.074Z,4068
2022-08-28T06:02:58.652Z,4732
2022-08-28T06:08:03.141Z,5444
2022-08-28T06:13:07.719Z,6168
2022-08-28T06:18:11.254Z,6460
2022-08-28T06:23:15.773Z,7780
2022-08-28T06:28:20.287Z,7844
2022-08-28T06:33:23.856Z,9148
2022-08-28T06:38:28.362Z,9080
2022-08-28T06:43:32.908Z,11008
2022-08-28T06:48:36.488Z,14068
2022-08-28T06:53:40.998Z,12884
2022-08-28T06:58:49.985Z,18752
2022-08-28T07:03:49.113Z,16736
2022-08-28T07:08:53.680Z,20320
2022-08-28T07:13:58.144Z,19264
2022-08-28T07:19:02.731Z,19808
2022-08-28T07:24:06.260Z,22016
2022-08-28T07:29:11.691Z,26944
2022-08-28T07:34:15.321Z,18016
2022-08-28T07:39:18.837Z,16640
2022-08-28T07:44:23.398Z,18272
2022-08-28T07:49:27.914Z,31200
2022-08-28T07:54:31.463Z,34624
2022-08-28T07:59:36.912Z,35616
2022-08-28T08:04:40.554Z,36224
2022-08-28T08:09:45.086Z,37984
2022-08-28T08:14:48.643Z,41824
2022-08-28T08:19:53.191Z,43008
2022-08-28T08:24:57.699Z,45632
2022-08-28T08:30:01.236Z,48032
2022-08-28T08:35:05.799Z,48864
2022-08-28T08:40:10.928Z,53376
2022-08-28T08:45:13.879Z,56800
2022-08-28T08:50:18.528Z,57472
2022-08-28T08:55:22.946Z,57664
2022-08-28T09:00:26.532Z,59808
2022-08-28T09:05:31.036Z,61824
2022-08-28T09:10:35.570Z,65088
2022-08-28T09:15:40.223Z,64960
2022-08-28T09:20:44.091Z,70496
2022-08-28T09:25:48.229Z,69056
2022-08-28T09:30:52.844Z,70304
2022-08-28T09:35:56.334Z,71936
2022-08-28T09:41:00.850Z,70080
2022-08-28T09:46:05.497Z,54528
2022-08-28T09:51:08.913Z,65728
2022-08-28T09:56:13.485Z,75424
2022-08-28T10:01:18.088Z,51968
2022-08-28T10:06:21.563Z,70752
2022-08-28T10:11:26.113Z,71296
2022-08-28T10:16:29.667Z,78816
2022-08-28T10:21:34.396Z,76576
2022-08-28T10:26:38.967Z,83104
2022-08-28T10:31:42.518Z,75200
2022-08-28T10:36:47.033Z,69920
2022-08-28T10:41:51.582Z,68032
2022-08-28T10:46:55.161Z,60320
2022-08-28T10:51:59.662Z,58464
2022-08-28T10:57:04.250Z,55040
2022-08-28T11:02:07.814Z,55744
2022-08-28T11:07:12.315Z,83584
2022-08-28T11:12:16.899Z,82272
2022-08-28T11:17:21.399Z,78688
2022-08-28T11:22:24.943Z,82400
2022-08-28T11:27:29.474Z,81504
2022-08-28T11:32:34.017Z,78528
2022-08-28T11:37:37.598Z,81216
2022-08-28T11:42:42.140Z,74368
2022-08-28T11:47:46.659Z,78752
2022-08-28T11:52:50.185Z,72832
2022-08-28T11:57:54.737Z,78720
2022-08-28T12:02:59.298Z,69568
2022-08-28T12:08:02.947Z,69824
2022-08-28T12:13:07.393Z,74240
2022-08-28T12:18:11.942Z,65440
2022-08-28T12:23:16.430Z,66464
2022-08-28T12:28:20.000Z,69376
2022-08-28T12:33:24.609Z,68224
2022-08-28T12:38:29.117Z,65152
2022-08-28T12:43:32.645Z,66208
2022-08-28T12:48:37.197Z,67456
2022-08-28T12:53:41.756Z,67360
2022-08-28T12:58:45.297Z,64992
2022-08-28T13:03:49.794Z,62528
2022-08-28T13:08:54.354Z,62528
2022-08-28T13:13:57.977Z,63488
2022-08-28T13:19:02.475Z,62400
2022-08-28T13:24:06.961Z,60672
2022-08-28T13:29:11.507Z,61376
2022-08-28T13:34:15.066Z,53152
2022-08-28T13:39:19.602Z,58240
2022-08-28T13:44:24.147Z,52800
2022-08-28T13:49:27.709Z,54976
2022-08-28T13:54:32.252Z,52768
2022-08-28T13:59:36.756Z,52224
2022-08-28T14:04:40.389Z,49152
2022-08-28T14:09:44.847Z,47776
2022-08-28T14:14:49.416Z,46304
2022-08-28T14:19:52.972Z,45024
2022-08-28T14:24:57.486Z,43776
2022-08-28T14:30:01.053Z,39136
2022-08-28T14:35:05.597Z,41952
2022-08-28T14:40:10.244Z,39264
2022-08-28T14:45:13.693Z,25920
2022-08-28T14:50:18.252Z,33664
2022-08-28T14:55:22.753Z,29088
2022-08-28T15:00:26.318Z,15960
2022-08-28T15:05:30.881Z,15664
2022-08-28T15:10:35.398Z,16576
2022-08-28T15:15:39.996Z,26816
2022-08-28T15:20:43.477Z,19456
2022-08-28T15:25:47.994Z,17248
2022-08-28T15:30:52.531Z,15552
2022-08-28T15:35:56.101Z,15488
2022-08-28T15:41:00.620Z,15104
2022-08-28T15:46:05.270Z,15520
2022-08-28T15:51:08.743Z,15648
2022-08-28T15:56:13.255Z,15904
2022-08-28T16:01:17.960Z,16736
2022-08-28T16:06:21.382Z,16928
2022-08-28T16:11:25.922Z,14112
2022-08-28T16:16:30.460Z,11504
2022-08-28T16:21:34.996Z,9944
2022-08-28T16:26:38.549Z,8764
2022-08-28T16:31:43.097Z,7460
2022-08-28T16:36:47.575Z,7036
2022-08-28T16:41:51.117Z,6700
2022-08-28T16:46:55.814Z,6324
2022-08-28T16:52:00.216Z,6024
2022-08-28T16:57:03.769Z,5756
2022-08-28T17:02:08.419Z,5436
2022-08-28T17:07:12.849Z,5208
2022-08-28T17:12:16.384Z,4996
2022-08-28T17:17:20.891Z,4748
2022-08-28T17:22:27.474Z,4072
2022-08-28T17:27:29.989Z,3796
2022-08-28T17:32:33.541Z,3508
2022-08-28T17:37:38.067Z,3204
2022-08-28T17:42:42.619Z,2884
2022-08-28T17:47:46.173Z,2520
2022-08-28T17:52:50.670Z,2172
2022-08-28T17:57:55.208Z,1872
2022-08-28T18:02:58.774Z,1492
2022-08-28T18:08:03.309Z,1092
2022-08-28T18:13:07.818Z,760
2022-08-28T18:18:11.398Z,500
2022-08-28T18:23:15.932Z,312
2022-08-28T18:28:22.214Z,188
2022-08-28T18:33:24.992Z,100
2022-08-28T18:38:28.600Z,52
2022-08-28T18:43:32.099Z,24
2022-08-28T18:48:36.629Z,8
2022-08-28T18:53:42.401Z,4
2022-08-28T18:58:44.742Z,4
2022-08-28T19:03:49.268Z,0
2022-08-28T19:08:53.756Z,0
2022-08-28T19:13:58.334Z,0
2022-08-28T19:19:01.863Z,0
2022-08-28T19:24:06.375Z,0
2022-08-28T19:29:10.933Z,0
2022-08-28T19:34:14.496Z,0
2022-08-28T19:39:19.022Z,0
2022-08-28T19:44:23.591Z,0
2022-08-28T19:49:27.116Z,0
2022-08-28T19:54:31.639Z,0
2022-08-28T19:59:36.198Z,0
2022-08-28T20:04:39.702Z,0
2022-08-28T20:09:44.241Z,0
2022-08-28T20:14:48.770Z,0
2022-08-28T20:19:53.319Z,0
2022-08-28T20:24:56.871Z,0
2022-08-28T20:30:10.367Z,0
2022-08-28T20:35:05.925Z,0
2022-08-28T20:40:10.083Z,0
2022-08-28T20:45:14.016Z,0
2022-08-28T20:50:18.588Z,0
2022-08-28T20:55:22.137Z,0
2022-08-28T21:00:26.598Z,0
2022-08-28T21:05:31.174Z,0
2022-08-28T21:10:34.720Z,0
2022-08-28T21:15:39.284Z,0
2022-08-28T21:20:43.777Z,0
2022-08-28T21:25:48.301Z,0
2022-08-28T21:30:51.908Z,0
2022-08-28T21:35:56.362Z,0
2022-08-28T21:41:00.907Z,0
2022-08-28T21:46:04.547Z,0
2022-08-28T21:51:09.028Z,0
2022-08-28T21:56:13.539Z,0
2022-08-28T22:01:17.156Z,0
2022-08-28T22:06:21.592Z,0
2022-08-28T22:11:26.135Z,0
2022-08-28T22:16:29.796Z,0
2022-08-28T22:21:34.231Z,0
2022-08-28T22:26:38.812Z,0
2022-08-28T22:31:45.649Z,0
2022-08-28T22:36:46.846Z,0
2022-08-28T22:41:51.385Z,0
2022-08-28T22:46:55.920Z,0
2022-08-28T22:51:59.440Z,0
2022-08-28T22:57:03.003Z,0
2022-08-28T23:02:07.579Z,0
2022-08-28T23:07:12.092Z,0
2022-08-28T23:12:16.617Z,0
2022-08-28T23:17:20.179Z,0
2022-08-28T23:22:24.720Z,0
2022-08-28T23:27:36.894Z,0
2022-08-28T23:32:34.085Z,0
2022-08-28T23:37:37.568Z,0
2022-08-28T23:42:42.083Z,0
2022-08-28T23:47:45.417Z,0
2022-08-28T23:52:49.944Z,0
2022-08-28T23:57:54.482Z,0
